createdAt,value
2018-07-30T00:01:31.094Z,98424.15
2018-07-30T00:03:59.786Z,98430.31
2018-07-30T00:06:28.280Z,98426.23
2018-07-30T00:08:56.790Z,98431.25
2018-07-30T00:11:25.357Z,98427.95
2018-07-30T00:13:53.863Z,98434.23
2018-07-30T00:16:22.474Z,98437.05
2018-07-30T00:18:50.975Z,98434.41
2018-07-30T00:21:19.817Z,98436.25
2018-07-30T00:23:48.381Z,98437.77
2018-07-30T00:26:16.865Z,98437.95
2018-07-30T00:28:45.443Z,98440.11
2018-07-30T00:31:13.962Z,98438.81
2018-07-30T00:33:42.557Z,98436.26
2018-07-30T00:36:11.077Z,98434.00
2018-07-30T00:38:39.561Z,98437.63
2018-07-30T00:41:08.230Z,98437.55
2018-07-30T00:43:36.869Z,98442.69
2018-07-30T00:46:05.582Z,98443.86
2018-07-30T00:48:34.086Z,98443.30
2018-07-30T00:51:02.639Z,98448.73
2018-07-30T00:53:31.846Z,98445.15
2018-07-30T00:56:00.479Z,98450.00
2018-07-30T00:58:28.940Z,98450.07
2018-07-30T01:00:57.555Z,98448.13
2018-07-30T01:03:26.020Z,98452.70
2018-07-30T01:05:54.662Z,98458.01
2018-07-30T01:08:23.224Z,98454.92
2018-07-30T01:10:51.795Z,98459.37
2018-07-30T01:13:20.396Z,98457.83
2018-07-30T01:15:48.932Z,98459.77
2018-07-30T01:18:18.219Z,98461.27
2018-07-30T01:20:46.730Z,98458.48
2018-07-30T01:23:15.379Z,98459.28
2018-07-30T01:25:44.107Z,98463.23
2018-07-30T01:28:12.673Z,98460.20
2018-07-30T01:30:41.193Z,98459.42
2018-07-30T01:33:09.711Z,98462.27
2018-07-30T01:35:38.429Z,98468.80
2018-07-30T01:38:07.322Z,98466.84
2018-07-30T01:40:35.806Z,98474.28
2018-07-30T01:43:04.259Z,98464.91
2018-07-30T01:45:32.749Z,98472.36
2018-07-30T01:48:01.355Z,98466.66
2018-07-30T01:50:29.876Z,98474.37
2018-07-30T01:52:58.453Z,98475.91
2018-07-30T02:02:44.372Z,98470.59
2018-07-30T02:05:12.974Z,98477.95
2018-07-30T02:07:42.433Z,98472.69
2018-07-30T02:10:12.250Z,98470.36
2018-07-30T02:12:41.198Z,98468.73
2018-07-30T02:15:09.978Z,98477.27
2018-07-30T02:17:38.521Z,98474.59
2018-07-30T02:20:07.161Z,98472.95
2018-07-30T02:22:35.727Z,98473.41
2018-07-30T02:25:04.769Z,98472.09
2018-07-30T02:27:33.360Z,98479.63
2018-07-30T02:30:01.968Z,98480.27
2018-07-30T02:32:30.486Z,98483.05
2018-07-30T02:34:59.198Z,98478.48
2018-07-30T02:37:28.013Z,98484.30
2018-07-30T02:39:56.738Z,98483.17
2018-07-30T02:42:25.346Z,98485.29
2018-07-30T02:44:53.842Z,98492.70
2018-07-30T02:47:22.386Z,98500.43
2018-07-30T02:49:50.946Z,98494.97
2018-07-30T02:52:19.424Z,98502.41
2018-07-30T02:54:48.042Z,98506.80
2018-07-30T02:57:16.733Z,98506.11
2018-07-30T02:59:45.274Z,98503.56
2018-07-30T03:02:13.892Z,98502.41
2018-07-30T03:04:42.805Z,98504.18
2018-07-30T03:07:11.408Z,98496.45
2018-07-30T03:09:39.921Z,98500.23
2018-07-30T03:12:08.454Z,98502.26
2018-07-30T03:14:37.288Z,98492.10
2018-07-30T03:17:05.875Z,98497.90
2018-07-30T03:19:34.338Z,98493.23
2018-07-30T03:22:02.822Z,98487.66
2018-07-30T03:24:31.486Z,98486.19
2018-07-30T03:27:00.337Z,98489.96
2018-07-30T03:29:29.054Z,98485.55
2018-07-30T03:31:57.788Z,98484.34
2018-07-30T03:34:26.289Z,98491.32
2018-07-30T03:36:54.842Z,98495.84
2018-07-30T03:39:23.435Z,98502.84
2018-07-30T03:41:51.995Z,98504.20
2018-07-30T03:44:20.740Z,98506.85
2018-07-30T03:46:49.277Z,98505.01
2018-07-30T03:49:17.786Z,98506.76
2018-07-30T03:51:46.349Z,98507.77
2018-07-30T03:54:14.827Z,98504.42
2018-07-30T03:56:43.331Z,98510.45
2018-07-30T03:59:11.886Z,98509.24
2018-07-30T04:01:40.431Z,98508.13
2018-07-30T04:04:08.997Z,98507.82
2018-07-30T04:06:37.516Z,98500.59
2018-07-30T04:09:09.357Z,98510.25
2018-07-30T04:11:38.129Z,98510.08
2018-07-30T04:14:06.834Z,98510.44
2018-07-30T04:16:50.948Z,98511.08
2018-07-30T04:19:20.478Z,98514.09
2018-07-30T04:21:49.047Z,98517.11
2018-07-30T04:24:17.782Z,98517.70
2018-07-30T04:26:47.130Z,98523.17
2018-07-30T04:29:16.525Z,98522.14
2018-07-30T04:31:45.204Z,98523.33
2018-07-30T04:34:13.730Z,98521.23
2018-07-30T04:36:42.368Z,98526.27
2018-07-30T04:39:13.695Z,98534.03
2018-07-30T04:41:42.454Z,98528.76
2018-07-30T04:44:10.989Z,98532.45
2018-07-30T04:46:39.544Z,98539.58
2018-07-30T04:49:08.230Z,98533.42
2018-07-30T04:51:37.294Z,98542.22
2018-07-30T04:54:06.298Z,98539.43
2018-07-30T04:56:34.999Z,98542.44
2018-07-30T04:59:03.554Z,98537.50
2018-07-30T05:01:32.633Z,98538.95
2018-07-30T05:04:01.203Z,98542.64
2018-07-30T05:06:29.659Z,98539.05
2018-07-30T05:08:58.357Z,98536.77
2018-07-30T05:11:26.865Z,98535.00
2018-07-30T05:13:55.925Z,98535.57
2018-07-30T05:16:24.427Z,98530.67
2018-07-30T05:18:52.866Z,98531.97
2018-07-30T05:21:21.426Z,98539.31
2018-07-30T05:23:50.078Z,98536.17
2018-07-30T05:26:18.589Z,98544.42
2018-07-30T05:28:47.126Z,98540.55
2018-07-30T05:31:15.618Z,98540.96
2018-07-30T05:33:44.211Z,98543.28
2018-07-30T05:36:12.814Z,98547.49
2018-07-30T05:38:41.342Z,98538.08
2018-07-30T05:41:10.372Z,98540.67
2018-07-30T05:43:39.036Z,98537.17
2018-07-30T05:46:07.510Z,98542.48
2018-07-30T05:48:35.970Z,98539.33
2018-07-30T05:51:04.506Z,98550.28
2018-07-30T05:53:32.933Z,98548.66
2018-07-30T05:56:01.455Z,98551.81
2018-07-30T05:58:30.071Z,98553.78
2018-07-30T06:00:58.874Z,98553.17
2018-07-30T06:03:27.419Z,98557.85
2018-07-30T06:05:56.005Z,98555.67
2018-07-30T06:08:24.498Z,98565.62
2018-07-30T06:10:53.097Z,98570.55
2018-07-30T06:13:21.746Z,98564.77
2018-07-30T06:15:50.337Z,98567.64
2018-07-30T06:18:19.025Z,98568.02
2018-07-30T06:20:47.509Z,98571.88
2018-07-30T06:23:15.981Z,98565.36
2018-07-30T06:25:44.879Z,98562.41
2018-07-30T06:28:13.430Z,98563.11
2018-07-30T06:30:41.957Z,98565.06
2018-07-30T06:33:10.530Z,98567.60
2018-07-30T06:35:38.991Z,98568.06
2018-07-30T06:38:07.640Z,98572.41
2018-07-30T06:40:36.385Z,98567.75
2018-07-30T06:43:04.863Z,98567.28
2018-07-30T06:45:33.310Z,98564.88
2018-07-30T06:48:02.044Z,98564.59
2018-07-30T06:50:30.849Z,98564.08
2018-07-30T06:52:59.749Z,98560.41
2018-07-30T06:55:28.246Z,98564.62
2018-07-30T06:57:56.826Z,98558.63
2018-07-30T07:00:25.356Z,98562.09
2018-07-30T07:02:53.951Z,98565.86
2018-07-30T07:05:22.514Z,98561.00
2018-07-30T07:07:50.998Z,98562.13
2018-07-30T07:10:19.491Z,98555.69
2018-07-30T07:12:48.292Z,98558.70
2018-07-30T07:15:16.811Z,98555.94
2018-07-30T07:17:45.442Z,98555.34
2018-07-30T07:20:14.098Z,98556.64
2018-07-30T07:22:42.676Z,98552.41
2018-07-30T07:25:11.494Z,98553.51
2018-07-30T07:27:40.014Z,98558.09
2018-07-30T07:30:09.246Z,98554.72
2018-07-30T07:32:37.805Z,98552.12
2018-07-30T07:35:06.731Z,98560.59
2018-07-30T07:37:35.474Z,98558.19
2018-07-30T07:40:04.355Z,98561.19
2018-07-30T07:42:32.938Z,98558.80
2018-07-30T07:45:01.936Z,98555.72
2018-07-30T07:47:30.467Z,98558.99
2018-07-30T07:49:59.379Z,98566.94
2018-07-30T07:52:27.990Z,98565.19
2018-07-30T07:54:56.505Z,98563.80
2018-07-30T07:57:25.532Z,98562.91
2018-07-30T07:59:54.088Z,98555.98
2018-07-30T08:02:22.770Z,98559.79
2018-07-30T08:04:51.407Z,98560.22
2018-07-30T08:07:19.909Z,98565.09
2018-07-30T08:09:48.517Z,98568.69
2018-07-30T08:12:16.995Z,98566.03
2018-07-30T08:14:45.608Z,98564.23
2018-07-30T08:17:14.282Z,98569.25
2018-07-30T08:19:42.741Z,98569.09
2018-07-30T08:22:11.368Z,98567.14
2018-07-30T08:24:39.807Z,98565.13
2018-07-30T08:27:08.391Z,98567.86
2018-07-30T08:29:36.881Z,98572.45
2018-07-30T08:32:05.317Z,98576.16
2018-07-30T08:34:33.903Z,98578.65
2018-07-30T08:37:02.531Z,98579.68
2018-07-30T08:39:31.003Z,98573.70
2018-07-30T08:41:59.689Z,98570.23
2018-07-30T08:44:28.253Z,98562.71
2018-07-30T08:46:57.067Z,98569.22
2018-07-30T08:49:25.685Z,98568.85
2018-07-30T08:51:54.237Z,98567.45
2018-07-30T08:54:22.749Z,98567.15
2018-07-30T08:56:51.294Z,98572.83
2018-07-30T08:59:19.822Z,98566.05
2018-07-30T09:01:48.393Z,98567.19
2018-07-30T09:04:17.052Z,98564.77
2018-07-30T09:06:45.507Z,98567.73
2018-07-30T09:09:14.014Z,98564.87
2018-07-30T09:11:42.769Z,98562.51
2018-07-30T09:14:11.407Z,98562.31
2018-07-30T09:16:39.966Z,98560.89
2018-07-30T09:19:08.467Z,98558.15
2018-07-30T09:21:37.119Z,98556.70
2018-07-30T09:24:05.928Z,98554.47
2018-07-30T09:26:34.493Z,98554.50
2018-07-30T09:29:03.034Z,98551.78
2018-07-30T09:31:31.630Z,98550.81
2018-07-30T09:34:00.353Z,98545.37
2018-07-30T09:36:28.842Z,98544.34
2018-07-30T09:38:57.314Z,98545.87
2018-07-30T09:41:25.801Z,98537.61
2018-07-30T09:43:54.306Z,98543.53
2018-07-30T09:46:22.968Z,98540.70
2018-07-30T09:48:51.453Z,98543.65
2018-07-30T09:51:20.262Z,98540.96
2018-07-30T09:53:48.798Z,98530.28
2018-07-30T09:56:17.349Z,98541.62
2018-07-30T09:58:45.824Z,98540.13
2018-07-30T10:01:20.446Z,98532.46
2018-07-30T10:03:49.296Z,98538.44
2018-07-30T10:06:18.189Z,98538.59
2018-07-30T10:08:46.686Z,98532.66
2018-07-30T10:11:15.331Z,98526.77
2018-07-30T10:13:43.885Z,98531.81
2018-07-30T10:16:12.429Z,98528.73
2018-07-30T10:18:40.939Z,98521.94
2018-07-30T10:21:09.567Z,98525.75
2018-07-30T10:23:38.048Z,98525.35
2018-07-30T10:26:07.199Z,98522.14
2018-07-30T10:28:35.854Z,98521.10
2018-07-30T10:31:04.410Z,98526.33
2018-07-30T10:33:33.010Z,98521.22
2018-07-30T10:36:01.598Z,98515.00
2018-07-30T10:38:30.159Z,98517.83
2018-07-30T10:40:58.915Z,98521.59
2018-07-30T10:43:27.474Z,98517.84
2018-07-30T10:45:56.046Z,98519.55
2018-07-30T10:48:24.757Z,98511.45
2018-07-30T10:50:53.226Z,98508.66
2018-07-30T10:53:21.711Z,98506.26
2018-07-30T10:55:50.329Z,98506.77
2018-07-30T10:58:19.016Z,98504.79
2018-07-30T11:00:47.601Z,98501.60
2018-07-30T11:03:16.223Z,98495.71
2018-07-30T11:05:44.847Z,98502.16
2018-07-30T11:08:13.374Z,98505.34
2018-07-30T11:10:41.910Z,98498.41
2018-07-30T11:13:10.395Z,98490.72
2018-07-30T11:15:38.934Z,98496.25
2018-07-30T11:18:07.482Z,98493.62
2018-07-30T11:20:36.199Z,98494.16
2018-07-30T11:23:04.820Z,98492.06
2018-07-30T11:25:33.583Z,98485.45
2018-07-30T11:28:02.152Z,98486.64
2018-07-30T11:30:30.802Z,98484.91
2018-07-30T11:33:00.475Z,98483.02
2018-07-30T11:35:28.950Z,98476.33
2018-07-30T11:37:57.461Z,98481.30
2018-07-30T11:40:26.134Z,98476.80
2018-07-30T11:42:54.809Z,98476.14
2018-07-30T11:45:23.377Z,98472.09
2018-07-30T11:47:52.034Z,98473.27
2018-07-30T11:50:20.647Z,98465.31
2018-07-30T11:52:49.351Z,98468.37
2018-07-30T11:55:18.003Z,98470.47
2018-07-30T12:00:16.532Z,98461.17
2018-07-30T12:02:45.347Z,98464.08
2018-07-30T12:05:13.898Z,98457.48
2018-07-30T12:07:42.379Z,98451.48
2018-07-30T12:10:10.830Z,98455.42
2018-07-30T12:12:39.350Z,98451.22
2018-07-30T12:15:07.911Z,98456.69
2018-07-30T12:17:36.483Z,98448.31
2018-07-30T12:20:05.348Z,98448.03
2018-07-30T12:22:34.125Z,98452.16
2018-07-30T12:25:02.626Z,98447.73
2018-07-30T12:27:31.207Z,98444.02
2018-07-30T12:30:00.023Z,98443.80
2018-07-30T12:32:28.541Z,98445.03
2018-07-30T12:34:56.941Z,98445.86
2018-07-30T12:37:25.545Z,98441.29
2018-07-30T12:39:54.018Z,98437.02
2018-07-30T12:42:22.533Z,98436.86
2018-07-30T12:44:51.144Z,98438.01
2018-07-30T12:47:19.629Z,98438.15
2018-07-30T12:49:48.404Z,98445.56
2018-07-30T12:52:16.930Z,98446.09
2018-07-30T12:54:45.725Z,98440.53
2018-07-30T12:57:14.294Z,98429.75
2018-07-30T12:59:42.849Z,98425.39
2018-07-30T13:02:11.428Z,98423.56
2018-07-30T13:04:39.881Z,98425.27
2018-07-30T13:07:08.563Z,98430.87
2018-07-30T13:09:37.101Z,98423.70
2018-07-30T13:12:05.817Z,98423.77
2018-07-30T13:14:34.334Z,98423.30
2018-07-30T13:17:02.813Z,98431.94
2018-07-30T13:19:31.338Z,98426.15
2018-07-30T13:22:00.038Z,98413.16
2018-07-30T13:24:28.645Z,98410.27
2018-07-30T13:26:57.154Z,98409.38
2018-07-30T13:29:25.721Z,98413.42
2018-07-30T13:31:54.210Z,98416.09
2018-07-30T13:34:22.638Z,98418.97
2018-07-30T13:36:51.154Z,98412.80
2018-07-30T13:39:19.677Z,98412.38
2018-07-30T13:41:48.352Z,98401.92
2018-07-30T13:44:16.826Z,98400.77
2018-07-30T13:46:45.370Z,98408.09
2018-07-30T13:49:13.970Z,98395.51
2018-07-30T13:51:42.383Z,98393.36
2018-07-30T13:54:10.903Z,98396.93
2018-07-30T13:56:39.569Z,98397.21
2018-07-30T13:59:08.141Z,98402.17
2018-07-30T14:01:36.853Z,98402.39
2018-07-30T14:04:05.436Z,98400.53
2018-07-30T14:06:34.100Z,98390.89
2018-07-30T14:09:02.498Z,98394.75
2018-07-30T14:11:31.077Z,98391.61
2018-07-30T14:13:59.761Z,98389.12
2018-07-30T14:16:28.465Z,98382.09
2018-07-30T14:18:57.066Z,98385.96
2018-07-30T14:21:25.577Z,98391.05
2018-07-30T14:23:54.646Z,98389.07
2018-07-30T14:26:23.189Z,98380.69
2018-07-30T14:28:51.767Z,98381.23
2018-07-30T14:31:20.351Z,98383.51
2018-07-30T14:33:48.890Z,98381.41
2018-07-30T14:36:17.436Z,98377.36
2018-07-30T14:38:45.996Z,98368.59
2018-07-30T14:41:14.847Z,98364.17
2018-07-30T14:43:43.375Z,98362.21
2018-07-30T14:46:11.879Z,98359.12
2018-07-30T14:48:40.398Z,98362.16
2018-07-30T14:51:08.933Z,98362.16
2018-07-30T14:53:37.637Z,98355.80
2018-07-30T14:56:06.413Z,98356.65
2018-07-30T14:58:35.040Z,98352.39
2018-07-30T15:01:03.527Z,98347.29
2018-07-30T15:03:32.032Z,98355.37
2018-07-30T15:06:00.773Z,98343.80
2018-07-30T15:08:29.450Z,98348.97
2018-07-30T15:10:57.989Z,98336.38
2018-07-30T15:13:26.433Z,98342.08
2018-07-30T15:15:54.964Z,98339.70
2018-07-30T15:18:23.797Z,98334.98
2018-07-30T15:20:52.362Z,98336.90
2018-07-30T15:23:21.074Z,98330.20
2018-07-30T15:25:49.661Z,98325.97
2018-07-30T15:28:18.161Z,98341.36
2018-07-30T15:30:46.650Z,98331.19
2018-07-30T15:33:15.077Z,98332.80
2018-07-30T15:35:43.678Z,98331.94
2018-07-30T15:38:12.658Z,98328.55
2018-07-30T15:40:41.291Z,98331.33
2018-07-30T15:43:09.775Z,98325.73
2018-07-30T15:45:40.760Z,98320.40
2018-07-30T15:48:09.451Z,98318.25
2018-07-30T15:50:38.086Z,98312.37
2018-07-30T15:53:06.682Z,98309.45
2018-07-30T15:55:35.134Z,98315.30
2018-07-30T15:58:03.646Z,98311.75
2018-07-30T16:00:32.112Z,98313.75
2018-07-30T16:03:01.238Z,98313.91
2018-07-30T16:05:29.817Z,98311.98
2018-07-30T16:07:58.976Z,98316.17
2018-07-30T16:10:27.658Z,98311.44
2018-07-30T16:12:56.417Z,98309.21
2018-07-30T16:15:24.936Z,98316.17
2018-07-30T16:17:53.503Z,98305.83
2018-07-30T16:20:22.266Z,98297.27
2018-07-30T16:22:50.873Z,98306.19
2018-07-30T16:25:19.373Z,98319.92
2018-07-30T16:27:47.881Z,98323.10
2018-07-30T16:30:16.364Z,98328.66
2018-07-30T16:32:44.919Z,98319.24
2018-07-30T16:35:13.557Z,98317.02
2018-07-30T16:37:42.232Z,98322.65
2018-07-30T16:40:10.906Z,98322.89
2018-07-30T16:42:39.450Z,98320.05
2018-07-30T16:45:09.018Z,98317.69
2018-07-30T16:47:37.839Z,98315.36
2018-07-30T16:50:07.694Z,98307.56
2018-07-30T16:52:36.918Z,98314.19
2018-07-30T16:55:06.242Z,98315.86
2018-07-30T16:57:34.753Z,98316.56
2018-07-30T17:00:03.367Z,98312.95
2018-07-30T17:02:35.937Z,98315.45
2018-07-30T17:05:04.834Z,98307.02
2018-07-30T17:07:33.614Z,98307.01
2018-07-30T17:10:02.127Z,98313.44
2018-07-30T17:12:30.666Z,98313.07
2018-07-30T17:14:59.382Z,98313.63
2018-07-30T17:17:27.933Z,98310.23
2018-07-30T17:19:56.587Z,98305.56
2018-07-30T17:22:25.237Z,98312.05
2018-07-30T17:24:53.814Z,98308.02
2018-07-30T17:27:22.578Z,98309.08
2018-07-30T17:29:51.130Z,98306.32
2018-07-30T17:32:19.661Z,98311.86
2018-07-30T17:34:48.131Z,98317.43
2018-07-30T17:37:16.856Z,98321.23
2018-07-30T17:39:45.475Z,98329.63
2018-07-30T17:42:14.023Z,98337.13
2018-07-30T17:44:44.342Z,98332.08
2018-07-30T17:47:12.805Z,98330.20
2018-07-30T17:49:41.343Z,98338.00
2018-07-30T17:52:09.847Z,98341.07
2018-07-30T17:54:38.357Z,98343.55
2018-07-30T17:57:07.262Z,98347.83
2018-07-30T17:59:35.920Z,98351.45
2018-07-30T18:02:04.571Z,98338.67
2018-07-30T18:04:33.030Z,98337.39
2018-07-30T18:07:01.585Z,98340.28
2018-07-30T18:09:30.039Z,98336.47
2018-07-30T18:11:58.774Z,98332.86
2018-07-30T18:14:27.347Z,98334.23
2018-07-30T18:16:56.059Z,98336.66
2018-07-30T18:19:24.582Z,98337.09
2018-07-30T18:21:53.034Z,98340.23
2018-07-30T18:24:21.585Z,98340.14
2018-07-30T18:26:50.065Z,98339.53
2018-07-30T18:29:18.631Z,98344.70
2018-07-30T18:31:47.458Z,98342.32
2018-07-30T18:34:16.010Z,98345.16
2018-07-30T18:36:44.454Z,98352.73
2018-07-30T18:39:13.009Z,98353.88
2018-07-30T18:41:41.761Z,98358.07
2018-07-30T18:44:10.357Z,98356.14
2018-07-30T18:46:38.842Z,98360.81
2018-07-30T18:49:07.421Z,98364.41
2018-07-30T18:51:35.982Z,98357.76
2018-07-30T18:54:04.482Z,98361.53
2018-07-30T18:56:32.980Z,98366.16
2018-07-30T18:59:01.534Z,98364.62
2018-07-30T19:01:30.415Z,98372.20
2018-07-30T19:03:58.981Z,98380.56
2018-07-30T19:06:27.505Z,98381.98
2018-07-30T19:08:56.046Z,98387.00
2018-07-30T19:11:24.546Z,98388.52
2018-07-30T19:13:53.123Z,98390.85
2018-07-30T19:16:21.675Z,98398.89
2018-07-30T19:18:50.618Z,98395.92
2018-07-30T19:21:19.163Z,98395.48
2018-07-30T19:23:47.666Z,98394.97
2018-07-30T19:26:19.339Z,98400.81
2018-07-30T19:28:47.807Z,98399.19
2018-07-30T19:31:16.722Z,98402.30
2018-07-30T19:33:45.238Z,98405.88
2018-07-30T19:36:13.810Z,98404.09
2018-07-30T19:38:42.438Z,98411.73
2018-07-30T19:41:11.187Z,98409.77
2018-07-30T19:43:39.794Z,98409.89
2018-07-30T19:46:08.375Z,98412.45
2018-07-30T19:48:36.906Z,98413.78
2018-07-30T19:51:05.682Z,98416.88
2018-07-30T19:53:34.115Z,98418.88
2018-07-30T19:56:02.709Z,98420.64
2018-07-30T19:58:31.386Z,98426.62
2018-07-30T20:00:59.967Z,98423.17
2018-07-30T20:03:28.611Z,98418.61
2018-07-30T20:05:57.128Z,98421.64
2018-07-30T20:08:25.787Z,98426.05
2018-07-30T20:10:54.443Z,98426.42
2018-07-30T20:13:22.946Z,98432.02
2018-07-30T20:15:51.439Z,98432.64
2018-07-30T20:18:19.870Z,98429.39
2018-07-30T20:20:48.319Z,98427.33
2018-07-30T20:23:16.966Z,98429.02
2018-07-30T20:25:45.470Z,98437.73
2018-07-30T20:28:14.020Z,98435.09
2018-07-30T20:30:42.722Z,98435.79
2018-07-30T20:33:11.246Z,98435.53
2018-07-30T20:35:39.774Z,98434.50
2018-07-30T20:38:08.430Z,98437.81
2018-07-30T20:40:36.895Z,98440.82
2018-07-30T20:43:05.564Z,98441.38
2018-07-30T20:45:34.244Z,98445.23
2018-07-30T20:48:02.774Z,98442.81
2018-07-30T20:50:31.413Z,98442.50
2018-07-30T20:53:00.412Z,98457.00
2018-07-30T20:55:28.918Z,98449.68
2018-07-30T20:57:57.521Z,98458.59
2018-07-30T21:00:26.098Z,98455.02
2018-07-30T21:02:54.742Z,98449.71
2018-07-30T21:05:23.526Z,98456.80
2018-07-30T21:07:52.014Z,98458.16
2018-07-30T21:10:20.577Z,98463.65
2018-07-30T21:12:49.104Z,98466.41
2018-07-30T21:15:17.662Z,98469.34
2018-07-30T21:17:46.137Z,98463.38
2018-07-30T21:20:14.710Z,98464.42
2018-07-30T21:22:43.321Z,98462.69
2018-07-30T21:25:11.793Z,98464.35
2018-07-30T21:27:40.302Z,98470.04
2018-07-30T21:30:09.636Z,98460.22
2018-07-30T21:32:38.254Z,98465.74
2018-07-30T21:35:07.647Z,98473.79
2018-07-30T21:37:36.405Z,98467.85
2018-07-30T21:40:05.454Z,98467.85
2018-07-30T21:42:33.921Z,98466.48
2018-07-30T21:45:02.399Z,98468.92
2018-07-30T21:47:30.936Z,98465.25
2018-07-30T21:49:59.551Z,98472.37
2018-07-30T21:52:28.167Z,98466.34
2018-07-30T21:54:56.638Z,98462.49
2018-07-30T21:57:25.329Z,98466.63
2018-07-30T21:59:53.861Z,98463.84
2018-07-30T22:02:22.373Z,98468.72
2018-07-30T22:04:50.881Z,98469.91
2018-07-30T22:07:19.339Z,98466.55
2018-07-30T22:09:47.830Z,98467.75
2018-07-30T22:12:16.356Z,98470.59
2018-07-30T22:14:44.917Z,98466.02
2018-07-30T22:17:13.480Z,98467.65
2018-07-30T22:19:41.923Z,98472.60
2018-07-30T22:22:10.460Z,98469.69
2018-07-30T22:24:39.009Z,98474.32
2018-07-30T22:27:07.539Z,98466.66
2018-07-30T22:29:35.998Z,98473.17
2018-07-30T22:32:04.489Z,98472.80
2018-07-30T22:34:32.946Z,98471.35
2018-07-30T22:37:01.747Z,98469.20
2018-07-30T22:39:30.223Z,98466.58
2018-07-30T22:41:58.750Z,98469.01
2018-07-30T22:44:27.277Z,98473.51
2018-07-30T22:46:55.815Z,98473.31
2018-07-30T22:49:24.358Z,98471.89
2018-07-30T22:51:52.838Z,98474.82
2018-07-30T22:54:21.314Z,98477.59
2018-07-30T22:56:49.800Z,98472.33
2018-07-30T22:59:18.446Z,98477.15
2018-07-30T23:01:46.935Z,98476.12
2018-07-30T23:04:15.458Z,98469.92
2018-07-30T23:06:43.921Z,98475.17
2018-07-30T23:09:12.405Z,98473.61
2018-07-30T23:11:40.889Z,98473.84
2018-07-30T23:14:09.422Z,98473.83
2018-07-30T23:16:37.942Z,98471.83
2018-07-30T23:19:06.452Z,98471.19
2018-07-30T23:21:35.097Z,98467.53
2018-07-30T23:24:04.603Z,98471.74
2018-07-30T23:26:33.268Z,98461.98
2018-07-30T23:29:01.837Z,98470.05
2018-07-30T23:31:31.367Z,98463.02
2018-07-30T23:34:00.250Z,98464.17
2018-07-30T23:36:28.890Z,98469.21
2018-07-30T23:38:57.343Z,98461.81
2018-07-30T23:41:25.898Z,98464.95
2018-07-30T23:43:54.414Z,98452.99
2018-07-30T23:46:22.938Z,98460.98
2018-07-30T23:48:51.614Z,98455.31
2018-07-30T23:51:20.126Z,98458.45
2018-07-30T23:53:48.870Z,98453.20
2018-07-30T23:56:17.446Z,98451.30
2018-07-30T23:58:45.925Z,98456.94
